Harrisburg, NE (69345)

7:54 PM MDT on September 29, 2016 (GMT -0600)
Wildcat Hills Gering Nebraska USA | | Change Station

Elev 4360 ft 41.72 °N, 103.67 °W | Updated 3 seconds ago

Clear
Clear
67.1 °F
Feels Like 67.1 °F
N
12.1
Wind Variable Wind from SE
Gusts 12.1 mph

Today
High -- | Low -- °F
--% Chance of Precip.
Yesterday
High -- | Low -- °F
Precip. -- in
Pressure 30.14 in
Visibility 10.0 miles
Clouds Clear
Dew Point 44 °F
Humidity 44%
Rainfall 0.00 in
Snow Depth Not available.
6:50 AM 6:39 PM
Waning Crescent, 1% visible
METAR KBFF 300053Z AUTO 12014KT 10SM CLR 21/07 A3020 RMK AO2 SLP206 T02060067
Pressure 30.14 in
Visibility 10.0 miles
Clouds Clear
Dew Point 44 °F
Humidity 44%
Rainfall 0.00 in
Snow Depth Not available.
6:50 AM 6:39 PM
Waning Crescent, 1% visible
METAR KBFF 300053Z AUTO 12014KT 10SM CLR 21/07 A3020 RMK AO2 SLP206 T02060067

10-Day Weather Forecast

Almanac

Astronomy

Sep. 29, 2016 Rise Set
Actual Time
Civil Twilight
Nautical Twilight
Astronomical Twilight
Moon
Length of Visible Light
Length of Day
Tomorrow will be .
, % of the Moon is Illuminated

Today's Extremes

State Highs State Lows

Community

WunderPhotos

Upload Photos

1,942,628 photos uploaded!

WunderBlog® & News

Nearby

Air Quality

  Air Quality AQ Index Pollutant
Not available.

Snow Depth

Station Depth Elevation

Earthquake Activity

City Distance Mag. Time & Date
Minimum magnitude displayed is 2.5.

Coastal Water Temperatures

Place Temperature

Stations

Nearby Weather Stations

Station Location Temp. Windchill Dew Point Humidity Wind Precip. Elev Updated Type
                   

Watches & Warnings

There are currently no watches in effect.